sensor_id;sensor_type;location;lat;lon;timestamp;P1;durP1;ratioP1;P2;durP2;ratioP2
84925;SDS011;75187;48.190;16.294;2024-02-26T00:00:05;4.60;;;2.40;;
84925;SDS011;75187;48.190;16.294;2024-02-26T00:02:34;7.00;;;2.88;;
84925;SDS011;75187;48.190;16.294;2024-02-26T00:05:06;4.45;;;2.40;;
84925;SDS011;75187;48.190;16.294;2024-02-26T00:07:32;6.80;;;2.60;;
84925;SDS011;75187;48.190;16.294;2024-02-26T00:09:58;5.85;;;2.33;;
84925;SDS011;75187;48.190;16.294;2024-02-26T00:12:23;3.88;;;2.50;;
84925;SDS011;75187;48.190;16.294;2024-02-26T00:14:48;6.13;;;2.25;;
84925;SDS011;75187;48.190;16.294;2024-02-26T00:17:14;6.00;;;2.50;;
84925;SDS011;75187;48.190;16.294;2024-02-26T00:19:40;3.58;;;2.53;;
84925;SDS011;75187;48.190;16.294;2024-02-26T00:22:05;4.15;;;2.47;;
84925;SDS011;75187;48.190;16.294;2024-02-26T00:24:31;4.53;;;2.38;;
84925;SDS011;75187;48.190;16.294;2024-02-26T00:26:56;6.60;;;2.70;;
84925;SDS011;75187;48.190;16.294;2024-02-26T00:29:21;4.60;;;2.57;;
84925;SDS011;75187;48.190;16.294;2024-02-26T00:31:47;5.88;;;3.00;;
84925;SDS011;75187;48.190;16.294;2024-02-26T00:34:12;8.32;;;3.08;;
84925;SDS011;75187;48.190;16.294;2024-02-26T00:36:38;7.82;;;3.42;;
84925;SDS011;75187;48.190;16.294;2024-02-26T00:39:03;7.53;;;4.30;;
84925;SDS011;75187;48.190;16.294;2024-02-26T00:41:29;11.70;;;4.60;;
84925;SDS011;75187;48.190;16.294;2024-02-26T00:43:54;11.05;;;5.40;;
84925;SDS011;75187;48.190;16.294;2024-02-26T00:46:20;11.18;;;5.28;;
84925;SDS011;75187;48.190;16.294;2024-02-26T00:48:45;16.65;;;4.90;;
84925;SDS011;75187;48.190;16.294;2024-02-26T00:51:11;15.97;;;5.07;;
84925;SDS011;75187;48.190;16.294;2024-02-26T00:53:36;14.73;;;5.20;;
84925;SDS011;75187;48.190;16.294;2024-02-26T00:56:01;15.10;;;5.60;;
84925;SDS011;75187;48.190;16.294;2024-02-26T00:58:27;16.35;;;5.75;;
84925;SDS011;75187;48.190;16.294;2024-02-26T01:00:52;9.03;;;5.07;;
84925;SDS011;75187;48.190;16.294;2024-02-26T01:03:18;12.85;;;4.78;;
84925;SDS011;75187;48.190;16.294;2024-02-26T01:05:44;9.23;;;4.35;;
84925;SDS011;75187;48.190;16.294;2024-02-26T01:08:09;13.15;;;4.90;;
84925;SDS011;75187;48.190;16.294;2024-02-26T01:10:34;11.23;;;3.97;;
84925;SDS011;75187;48.190;16.294;2024-02-26T01:13:00;7.75;;;3.58;;
84925;SDS011;75187;48.190;16.294;2024-02-26T01:15:26;6.38;;;3.90;;
84925;SDS011;75187;48.190;16.294;2024-02-26T01:17:52;6.72;;;3.25;;
84925;SDS011;75187;48.190;16.294;2024-02-26T01:20:17;12.43;;;3.67;;
84925;SDS011;75187;48.190;16.294;2024-02-26T01:22:43;7.80;;;3.40;;
84925;SDS011;75187;48.190;16.294;2024-02-26T01:25:09;8.27;;;4.10;;
84925;SDS011;75187;48.190;16.294;2024-02-26T01:27:35;6.50;;;3.53;;
84925;SDS011;75187;48.190;16.294;2024-02-26T01:30:02;10.88;;;3.97;;
84925;SDS011;75187;48.190;16.294;2024-02-26T01:32:28;6.18;;;2.90;;
84925;SDS011;75187;48.190;16.294;2024-02-26T01:34:54;8.25;;;3.20;;
84925;SDS011;75187;48.190;16.294;2024-02-26T01:37:19;5.68;;;3.10;;
84925;SDS011;75187;48.190;16.294;2024-02-26T01:39:45;6.13;;;3.60;;
84925;SDS011;75187;48.190;16.294;2024-02-26T01:42:10;7.10;;;3.50;;
84925;SDS011;75187;48.190;16.294;2024-02-26T01:44:36;8.57;;;3.78;;
84925;SDS011;75187;48.190;16.294;2024-02-26T01:47:03;6.85;;;3.40;;
84925;SDS011;75187;48.190;16.294;2024-02-26T01:49:29;6.57;;;3.53;;
84925;SDS011;75187;48.190;16.294;2024-02-26T01:51:55;7.68;;;3.58;;
84925;SDS011;75187;48.190;16.294;2024-02-26T01:54:22;10.15;;;3.72;;
84925;SDS011;75187;48.190;16.294;2024-02-26T01:56:48;7.07;;;3.55;;
84925;SDS011;75187;48.190;16.294;2024-02-26T01:59:14;10.18;;;3.92;;
84925;SDS011;75187;48.190;16.294;2024-02-26T02:01:40;9.02;;;4.07;;
84925;SDS011;75187;48.190;16.294;2024-02-26T02:04:10;9.98;;;3.90;;
84925;SDS011;75187;48.190;16.294;2024-02-26T02:06:36;7.15;;;3.58;;
84925;SDS011;75187;48.190;16.294;2024-02-26T02:09:03;8.88;;;4.05;;
84925;SDS011;75187;48.190;16.294;2024-02-26T02:11:32;8.98;;;3.55;;
84925;SDS011;75187;48.190;16.294;2024-02-26T02:13:58;5.90;;;2.92;;
84925;SDS011;75187;48.190;16.294;2024-02-26T02:16:24;6.82;;;3.13;;
84925;SDS011;75187;48.190;16.294;2024-02-26T02:18:49;5.82;;;3.17;;
84925;SDS011;75187;48.190;16.294;2024-02-26T02:21:14;6.13;;;3.50;;
84925;SDS011;75187;48.190;16.294;2024-02-26T02:23:40;5.77;;;3.13;;
84925;SDS011;75187;48.190;16.294;2024-02-26T02:26:07;9.00;;;3.92;;
84925;SDS011;75187;48.190;16.294;2024-02-26T02:28:33;7.28;;;3.55;;
84925;SDS011;75187;48.190;16.294;2024-02-26T02:30:58;11.50;;;3.55;;
84925;SDS011;75187;48.190;16.294;2024-02-26T02:33:23;6.03;;;3.05;;
84925;SDS011;75187;48.190;16.294;2024-02-26T02:35:50;7.38;;;3.55;;
84925;SDS011;75187;48.190;16.294;2024-02-26T02:38:17;6.00;;;3.00;;
84925;SDS011;75187;48.190;16.294;2024-02-26T02:40:42;7.45;;;3.22;;
84925;SDS011;75187;48.190;16.294;2024-02-26T02:43:08;7.70;;;3.70;;
84925;SDS011;75187;48.190;16.294;2024-02-26T02:45:33;6.33;;;3.67;;
84925;SDS011;75187;48.190;16.294;2024-02-26T02:47:58;8.65;;;4.15;;
84925;SDS011;75187;48.190;16.294;2024-02-26T02:50:24;7.03;;;4.20;;
84925;SDS011;75187;48.190;16.294;2024-02-26T02:52:49;5.45;;;3.55;;
84925;SDS011;75187;48.190;16.294;2024-02-26T02:55:15;6.95;;;3.88;;
84925;SDS011;75187;48.190;16.294;2024-02-26T02:57:41;7.15;;;4.07;;
84925;SDS011;75187;48.190;16.294;2024-02-26T03:00:08;9.45;;;3.85;;
84925;SDS011;75187;48.190;16.294;2024-02-26T03:02:34;9.90;;;4.22;;
84925;SDS011;75187;48.190;16.294;2024-02-26T03:05:01;5.72;;;3.28;;
84925;SDS011;75187;48.190;16.294;2024-02-26T03:07:27;5.93;;;3.40;;
84925;SDS011;75187;48.190;16.294;2024-02-26T03:09:53;7.43;;;3.22;;
84925;SDS011;75187;48.190;16.294;2024-02-26T03:12:18;6.35;;;3.38;;
84925;SDS011;75187;48.190;16.294;2024-02-26T03:14:44;5.00;;;3.05;;
84925;SDS011;75187;48.190;16.294;2024-02-26T03:17:09;6.60;;;3.20;;
84925;SDS011;75187;48.190;16.294;2024-02-26T03:19:34;6.43;;;3.90;;
84925;SDS011;75187;48.190;16.294;2024-02-26T03:22:00;7.13;;;2.97;;
84925;SDS011;75187;48.190;16.294;2024-02-26T03:24:25;8.20;;;3.17;;
84925;SDS011;75187;48.190;16.294;2024-02-26T03:26:50;6.43;;;3.40;;
84925;SDS011;75187;48.190;16.294;2024-02-26T03:29:17;5.07;;;3.38;;
84925;SDS011;75187;48.190;16.294;2024-02-26T03:31:42;4.85;;;2.88;;
84925;SDS011;75187;48.190;16.294;2024-02-26T03:34:07;4.32;;;2.72;;
84925;SDS011;75187;48.190;16.294;2024-02-26T03:36:33;4.33;;;2.83;;
84925;SDS011;75187;48.190;16.294;2024-02-26T03:38:58;7.23;;;2.83;;
84925;SDS011;75187;48.190;16.294;2024-02-26T03:41:23;5.03;;;2.72;;
84925;SDS011;75187;48.190;16.294;2024-02-26T03:43:49;5.25;;;3.38;;
84925;SDS011;75187;48.190;16.294;2024-02-26T03:46:14;5.47;;;2.85;;
84925;SDS011;75187;48.190;16.294;2024-02-26T03:48:42;4.37;;;3.00;;
84925;SDS011;75187;48.190;16.294;2024-02-26T03:51:08;8.13;;;3.30;;
84925;SDS011;75187;48.190;16.294;2024-02-26T03:53:35;6.15;;;3.33;;
84925;SDS011;75187;48.190;16.294;2024-02-26T03:56:04;5.72;;;2.92;;
84925;SDS011;75187;48.190;16.294;2024-02-26T03:58:30;7.45;;;3.03;;
84925;SDS011;75187;48.190;16.294;2024-02-26T04:00:56;7.60;;;3.00;;
84925;SDS011;75187;48.190;16.294;2024-02-26T04:03:21;5.27;;;3.23;;
84925;SDS011;75187;48.190;16.294;2024-02-26T04:05:46;5.35;;;3.05;;
84925;SDS011;75187;48.190;16.294;2024-02-26T04:08:12;7.82;;;2.88;;
84925;SDS011;75187;48.190;16.294;2024-02-26T04:10:37;4.82;;;2.72;;
84925;SDS011;75187;48.190;16.294;2024-02-26T04:13:04;6.00;;;2.70;;
84925;SDS011;75187;48.190;16.294;2024-02-26T04:15:30;7.72;;;3.30;;
84925;SDS011;75187;48.190;16.294;2024-02-26T04:17:55;4.47;;;2.67;;
84925;SDS011;75187;48.190;16.294;2024-02-26T04:20:21;4.40;;;2.50;;
84925;SDS011;75187;48.190;16.294;2024-02-26T04:22:47;7.95;;;3.10;;
84925;SDS011;75187;48.190;16.294;2024-02-26T04:25:12;3.88;;;2.67;;
84925;SDS011;75187;48.190;16.294;2024-02-26T04:27:38;6.97;;;3.30;;
84925;SDS011;75187;48.190;16.294;2024-02-26T04:30:03;7.78;;;3.20;;
84925;SDS011;75187;48.190;16.294;2024-02-26T04:32:30;5.55;;;2.80;;
84925;SDS011;75187;48.190;16.294;2024-02-26T04:34:55;6.13;;;3.35;;
84925;SDS011;75187;48.190;16.294;2024-02-26T04:37:20;5.05;;;2.90;;
84925;SDS011;75187;48.190;16.294;2024-02-26T04:39:46;9.27;;;3.88;;
84925;SDS011;75187;48.190;16.294;2024-02-26T04:42:11;5.90;;;3.38;;
84925;SDS011;75187;48.190;16.294;2024-02-26T04:44:37;6.25;;;3.53;;
84925;SDS011;75187;48.190;16.294;2024-02-26T04:47:02;6.80;;;3.17;;
84925;SDS011;75187;48.190;16.294;2024-02-26T04:49:28;4.80;;;3.00;;
84925;SDS011;75187;48.190;16.294;2024-02-26T04:51:53;5.45;;;3.47;;
84925;SDS011;75187;48.190;16.294;2024-02-26T04:54:19;6.15;;;3.50;;
84925;SDS011;75187;48.190;16.294;2024-02-26T04:56:44;6.32;;;2.92;;
84925;SDS011;75187;48.190;16.294;2024-02-26T04:59:10;4.80;;;2.60;;
84925;SDS011;75187;48.190;16.294;2024-02-26T05:01:35;5.53;;;2.95;;
84925;SDS011;75187;48.190;16.294;2024-02-26T05:04:01;4.88;;;2.95;;
84925;SDS011;75187;48.190;16.294;2024-02-26T05:06:28;5.47;;;3.03;;
84925;SDS011;75187;48.190;16.294;2024-02-26T05:08:53;6.80;;;3.53;;
84925;SDS011;75187;48.190;16.294;2024-02-26T05:11:19;5.28;;;3.08;;
84925;SDS011;75187;48.190;16.294;2024-02-26T05:13:44;5.40;;;2.80;;
84925;SDS011;75187;48.190;16.294;2024-02-26T05:16:10;6.28;;;3.28;;
84925;SDS011;75187;48.190;16.294;2024-02-26T05:18:35;4.93;;;3.05;;
84925;SDS011;75187;48.190;16.294;2024-02-26T05:21:01;4.25;;;2.63;;
84925;SDS011;75187;48.190;16.294;2024-02-26T05:23:28;4.97;;;3.30;;
84925;SDS011;75187;48.190;16.294;2024-02-26T05:25:54;4.40;;;2.65;;
84925;SDS011;75187;48.190;16.294;2024-02-26T05:28:19;5.20;;;3.08;;
84925;SDS011;75187;48.190;16.294;2024-02-26T05:30:45;5.43;;;3.28;;
84925;SDS011;75187;48.190;16.294;2024-02-26T05:33:11;4.22;;;2.92;;
84925;SDS011;75187;48.190;16.294;2024-02-26T05:35:36;5.70;;;3.53;;
84925;SDS011;75187;48.190;16.294;2024-02-26T05:38:02;6.22;;;3.30;;
84925;SDS011;75187;48.190;16.294;2024-02-26T05:40:27;5.57;;;3.00;;
84925;SDS011;75187;48.190;16.294;2024-02-26T05:42:53;7.20;;;3.33;;
84925;SDS011;75187;48.190;16.294;2024-02-26T05:45:18;6.75;;;3.50;;
84925;SDS011;75187;48.190;16.294;2024-02-26T05:47:43;5.97;;;3.60;;
84925;SDS011;75187;48.190;16.294;2024-02-26T05:50:09;5.50;;;3.03;;
84925;SDS011;75187;48.190;16.294;2024-02-26T05:52:36;8.05;;;3.17;;
84925;SDS011;75187;48.190;16.294;2024-02-26T05:55:02;6.85;;;3.17;;
84925;SDS011;75187;48.190;16.294;2024-02-26T05:57:28;6.25;;;3.13;;
84925;SDS011;75187;48.190;16.294;2024-02-26T05:59:53;5.77;;;3.40;;
84925;SDS011;75187;48.190;16.294;2024-02-26T06:02:18;4.77;;;3.30;;
84925;SDS011;75187;48.190;16.294;2024-02-26T06:04:44;5.93;;;3.43;;
84925;SDS011;75187;48.190;16.294;2024-02-26T06:07:09;6.00;;;3.45;;
84925;SDS011;75187;48.190;16.294;2024-02-26T06:09:34;6.25;;;3.50;;
84925;SDS011;75187;48.190;16.294;2024-02-26T06:12:00;9.23;;;4.47;;
84925;SDS011;75187;48.190;16.294;2024-02-26T06:14:25;6.10;;;3.93;;
84925;SDS011;75187;48.190;16.294;2024-02-26T06:16:50;5.72;;;3.20;;
84925;SDS011;75187;48.190;16.294;2024-02-26T06:19:16;7.40;;;3.77;;
84925;SDS011;75187;48.190;16.294;2024-02-26T06:21:41;6.17;;;3.53;;
84925;SDS011;75187;48.190;16.294;2024-02-26T06:24:06;7.00;;;3.57;;
84925;SDS011;75187;48.190;16.294;2024-02-26T06:26:32;6.25;;;3.50;;
84925;SDS011;75187;48.190;16.294;2024-02-26T06:28:58;6.28;;;3.80;;
84925;SDS011;75187;48.190;16.294;2024-02-26T06:31:24;6.38;;;3.60;;
84925;SDS011;75187;48.190;16.294;2024-02-26T06:33:49;8.20;;;5.15;;
84925;SDS011;75187;48.190;16.294;2024-02-26T06:36:15;7.18;;;3.47;;
84925;SDS011;75187;48.190;16.294;2024-02-26T06:38:41;6.07;;;3.65;;
84925;SDS011;75187;48.190;16.294;2024-02-26T06:41:06;6.80;;;3.92;;
84925;SDS011;75187;48.190;16.294;2024-02-26T06:43:32;7.45;;;3.40;;
84925;SDS011;75187;48.190;16.294;2024-02-26T06:45:57;8.27;;;3.95;;
84925;SDS011;75187;48.190;16.294;2024-02-26T06:48:23;7.80;;;3.83;;
84925;SDS011;75187;48.190;16.294;2024-02-26T06:50:49;7.30;;;3.78;;
84925;SDS011;75187;48.190;16.294;2024-02-26T06:53:14;5.50;;;3.15;;
84925;SDS011;75187;48.190;16.294;2024-02-26T06:55:41;8.18;;;3.47;;
84925;SDS011;75187;48.190;16.294;2024-02-26T06:58:06;6.95;;;3.78;;
84925;SDS011;75187;48.190;16.294;2024-02-26T07:00:32;6.85;;;3.10;;
84925;SDS011;75187;48.190;16.294;2024-02-26T07:02:57;6.55;;;3.65;;
84925;SDS011;75187;48.190;16.294;2024-02-26T07:05:23;6.13;;;3.55;;
84925;SDS011;75187;48.190;16.294;2024-02-26T07:07:48;7.22;;;3.60;;
84925;SDS011;75187;48.190;16.294;2024-02-26T07:10:14;9.50;;;3.95;;
84925;SDS011;75187;48.190;16.294;2024-02-26T07:12:39;4.57;;;3.20;;
84925;SDS011;75187;48.190;16.294;2024-02-26T07:15:04;7.82;;;3.92;;
84925;SDS011;75187;48.190;16.294;2024-02-26T07:17:32;6.32;;;3.70;;
84925;SDS011;75187;48.190;16.294;2024-02-26T07:19:59;6.53;;;3.58;;
84925;SDS011;75187;48.190;16.294;2024-02-26T07:22:26;10.75;;;4.32;;
84925;SDS011;75187;48.190;16.294;2024-02-26T07:24:51;8.05;;;3.70;;
84925;SDS011;75187;48.190;16.294;2024-02-26T07:27:18;6.55;;;3.47;;
84925;SDS011;75187;48.190;16.294;2024-02-26T07:29:45;5.18;;;3.80;;
84925;SDS011;75187;48.190;16.294;2024-02-26T07:32:11;6.22;;;3.65;;
84925;SDS011;75187;48.190;16.294;2024-02-26T07:34:36;6.15;;;3.70;;
84925;SDS011;75187;48.190;16.294;2024-02-26T07:37:04;7.30;;;3.53;;
84925;SDS011;75187;48.190;16.294;2024-02-26T07:39:29;5.68;;;3.13;;
84925;SDS011;75187;48.190;16.294;2024-02-26T07:41:54;6.22;;;3.78;;
84925;SDS011;75187;48.190;16.294;2024-02-26T07:44:20;7.00;;;4.20;;
84925;SDS011;75187;48.190;16.294;2024-02-26T07:46:45;8.33;;;3.57;;
84925;SDS011;75187;48.190;16.294;2024-02-26T07:49:10;8.25;;;4.35;;
84925;SDS011;75187;48.190;16.294;2024-02-26T07:51:36;6.27;;;3.50;;
84925;SDS011;75187;48.190;16.294;2024-02-26T07:54:01;6.63;;;4.00;;
84925;SDS011;75187;48.190;16.294;2024-02-26T07:56:27;7.45;;;3.53;;
84925;SDS011;75187;48.190;16.294;2024-02-26T07:58:52;9.53;;;4.30;;
84925;SDS011;75187;48.190;16.294;2024-02-26T08:01:18;4.67;;;3.57;;
84925;SDS011;75187;48.190;16.294;2024-02-26T08:03:43;6.90;;;3.67;;
84925;SDS011;75187;48.190;16.294;2024-02-26T08:06:08;6.25;;;4.13;;
84925;SDS011;75187;48.190;16.294;2024-02-26T08:08:34;7.75;;;4.35;;
84925;SDS011;75187;48.190;16.294;2024-02-26T08:10:59;8.90;;;4.28;;
84925;SDS011;75187;48.190;16.294;2024-02-26T08:13:25;7.70;;;4.45;;
84925;SDS011;75187;48.190;16.294;2024-02-26T08:15:51;6.45;;;3.97;;
84925;SDS011;75187;48.190;16.294;2024-02-26T08:18:17;7.38;;;4.68;;
84925;SDS011;75187;48.190;16.294;2024-02-26T08:20:42;8.85;;;4.30;;
84925;SDS011;75187;48.190;16.294;2024-02-26T08:23:08;8.23;;;4.20;;
84925;SDS011;75187;48.190;16.294;2024-02-26T08:25:33;15.13;;;7.83;;
84925;SDS011;75187;48.190;16.294;2024-02-26T08:27:58;8.80;;;3.97;;
84925;SDS011;75187;48.190;16.294;2024-02-26T08:30:24;10.53;;;5.30;;
84925;SDS011;75187;48.190;16.294;2024-02-26T08:32:49;9.60;;;4.85;;
84925;SDS011;75187;48.190;16.294;2024-02-26T08:35:14;7.68;;;4.70;;
84925;SDS011;75187;48.190;16.294;2024-02-26T08:37:43;8.88;;;4.47;;
84925;SDS011;75187;48.190;16.294;2024-02-26T08:40:10;7.20;;;4.15;;
84925;SDS011;75187;48.190;16.294;2024-02-26T08:42:35;7.25;;;4.32;;
84925;SDS011;75187;48.190;16.294;2024-02-26T08:45:01;8.50;;;4.85;;
84925;SDS011;75187;48.190;16.294;2024-02-26T08:47:28;7.93;;;4.80;;
84925;SDS011;75187;48.190;16.294;2024-02-26T08:49:53;7.28;;;4.93;;
84925;SDS011;75187;48.190;16.294;2024-02-26T08:52:19;7.70;;;4.68;;
84925;SDS011;75187;48.190;16.294;2024-02-26T08:54:44;9.85;;;5.00;;
84925;SDS011;75187;48.190;16.294;2024-02-26T08:57:10;7.27;;;4.43;;
84925;SDS011;75187;48.190;16.294;2024-02-26T08:59:35;7.25;;;4.95;;
84925;SDS011;75187;48.190;16.294;2024-02-26T09:02:00;8.23;;;4.43;;
84925;SDS011;75187;48.190;16.294;2024-02-26T09:04:26;9.35;;;4.57;;
84925;SDS011;75187;48.190;16.294;2024-02-26T09:06:52;6.63;;;4.22;;
84925;SDS011;75187;48.190;16.294;2024-02-26T09:09:17;5.93;;;4.07;;
84925;SDS011;75187;48.190;16.294;2024-02-26T09:11:43;6.55;;;3.78;;
84925;SDS011;75187;48.190;16.294;2024-02-26T09:14:08;6.53;;;3.85;;
84925;SDS011;75187;48.190;16.294;2024-02-26T09:16:33;7.07;;;4.55;;
84925;SDS011;75187;48.190;16.294;2024-02-26T09:18:59;8.18;;;4.00;;
84925;SDS011;75187;48.190;16.294;2024-02-26T09:21:24;5.63;;;3.83;;
84925;SDS011;75187;48.190;16.294;2024-02-26T09:23:50;7.15;;;4.18;;
84925;SDS011;75187;48.190;16.294;2024-02-26T09:26:16;6.95;;;3.17;;
84925;SDS011;75187;48.190;16.294;2024-02-26T09:28:41;7.57;;;3.58;;
84925;SDS011;75187;48.190;16.294;2024-02-26T09:31:07;5.28;;;3.42;;
84925;SDS011;75187;48.190;16.294;2024-02-26T09:33:33;4.25;;;2.75;;
84925;SDS011;75187;48.190;16.294;2024-02-26T09:35:58;4.47;;;2.40;;
84925;SDS011;75187;48.190;16.294;2024-02-26T09:38:25;5.15;;;2.70;;
84925;SDS011;75187;48.190;16.294;2024-02-26T09:40:51;3.85;;;2.25;;
84925;SDS011;75187;48.190;16.294;2024-02-26T09:43:16;6.57;;;2.40;;
84925;SDS011;75187;48.190;16.294;2024-02-26T09:45:46;3.60;;;2.20;;
84925;SDS011;75187;48.190;16.294;2024-02-26T09:48:12;4.43;;;2.17;;
84925;SDS011;75187;48.190;16.294;2024-02-26T09:50:40;4.22;;;2.00;;
84925;SDS011;75187;48.190;16.294;2024-02-26T09:53:08;5.97;;;2.47;;
84925;SDS011;75187;48.190;16.294;2024-02-26T09:55:35;3.95;;;2.38;;
84925;SDS011;75187;48.190;16.294;2024-02-26T09:58:00;3.78;;;2.10;;
84925;SDS011;75187;48.190;16.294;2024-02-26T10:00:27;4.10;;;2.50;;
84925;SDS011;75187;48.190;16.294;2024-02-26T10:02:57;2.70;;;2.00;;
84925;SDS011;75187;48.190;16.294;2024-02-26T10:05:25;3.50;;;2.10;;
84925;SDS011;75187;48.190;16.294;2024-02-26T10:07:51;2.95;;;1.75;;
84925;SDS011;75187;48.190;16.294;2024-02-26T10:10:17;4.68;;;2.22;;
84925;SDS011;75187;48.190;16.294;2024-02-26T10:12:43;4.95;;;1.95;;
84925;SDS011;75187;48.190;16.294;2024-02-26T10:15:09;4.63;;;1.90;;
84925;SDS011;75187;48.190;16.294;2024-02-26T10:17:34;4.05;;;1.80;;
84925;SDS011;75187;48.190;16.294;2024-02-26T10:20:17;4.47;;;2.20;;
84925;SDS011;75187;48.190;16.294;2024-02-26T10:22:46;3.28;;;1.73;;
84925;SDS011;75187;48.190;16.294;2024-02-26T10:25:11;3.13;;;1.60;;
84925;SDS011;75187;48.190;16.294;2024-02-26T10:27:37;2.60;;;1.80;;
84925;SDS011;75187;48.190;16.294;2024-02-26T10:32:44;4.72;;;1.88;;
84925;SDS011;75187;48.190;16.294;2024-02-26T10:35:11;4.13;;;2.00;;
84925;SDS011;75187;48.190;16.294;2024-02-26T10:37:37;3.88;;;1.73;;
84925;SDS011;75187;48.190;16.294;2024-02-26T10:40:02;4.73;;;2.10;;
84925;SDS011;75187;48.190;16.294;2024-02-26T10:42:28;3.80;;;1.80;;
84925;SDS011;75187;48.190;16.294;2024-02-26T10:44:55;3.72;;;2.08;;
84925;SDS011;75187;48.190;16.294;2024-02-26T10:47:20;3.83;;;2.00;;
84925;SDS011;75187;48.190;16.294;2024-02-26T10:49:46;4.35;;;1.80;;
84925;SDS011;75187;48.190;16.294;2024-02-26T10:52:13;3.30;;;1.60;;
84925;SDS011;75187;48.190;16.294;2024-02-26T10:54:40;3.53;;;1.90;;
84925;SDS011;75187;48.190;16.294;2024-02-26T10:57:08;6.38;;;2.65;;
84925;SDS011;75187;48.190;16.294;2024-02-26T10:59:34;6.20;;;2.17;;
84925;SDS011;75187;48.190;16.294;2024-02-26T11:02:01;5.63;;;2.00;;
84925;SDS011;75187;48.190;16.294;2024-02-26T11:04:27;3.72;;;1.83;;
84925;SDS011;75187;48.190;16.294;2024-02-26T11:06:55;3.05;;;1.67;;
84925;SDS011;75187;48.190;16.294;2024-02-26T11:09:22;4.45;;;2.05;;
84925;SDS011;75187;48.190;16.294;2024-02-26T11:11:48;4.65;;;2.30;;
84925;SDS011;75187;48.190;16.294;2024-02-26T11:14:15;3.70;;;1.77;;
84925;SDS011;75187;48.190;16.294;2024-02-26T11:16:40;2.25;;;1.70;;
84925;SDS011;75187;48.190;16.294;2024-02-26T11:19:08;2.80;;;1.50;;
84925;SDS011;75187;48.190;16.294;2024-02-26T11:21:35;4.88;;;1.80;;
84925;SDS011;75187;48.190;16.294;2024-02-26T11:24:08;2.53;;;1.33;;
84925;SDS011;75187;48.190;16.294;2024-02-26T11:26:39;3.33;;;1.60;;
84925;SDS011;75187;48.190;16.294;2024-02-26T11:29:23;4.07;;;1.52;;
84925;SDS011;75187;48.190;16.294;2024-02-26T11:31:52;3.28;;;1.45;;
84925;SDS011;75187;48.190;16.294;2024-02-26T11:34:18;2.80;;;1.25;;
84925;SDS011;75187;48.190;16.294;2024-02-26T11:36:43;3.47;;;1.30;;
84925;SDS011;75187;48.190;16.294;2024-02-26T11:39:10;3.83;;;1.20;;
84925;SDS011;75187;48.190;16.294;2024-02-26T11:41:37;4.53;;;1.30;;
84925;SDS011;75187;48.190;16.294;2024-02-26T11:44:03;3.30;;;1.33;;
84925;SDS011;75187;48.190;16.294;2024-02-26T11:46:32;1.85;;;1.25;;
84925;SDS011;75187;48.190;16.294;2024-02-26T11:54:37;3.17;;;1.30;;
84925;SDS011;75187;48.190;16.294;2024-02-26T11:57:21;2.17;;;1.20;;
84925;SDS011;75187;48.190;16.294;2024-02-26T11:59:50;2.45;;;1.40;;
84925;SDS011;75187;48.190;16.294;2024-02-26T12:05:19;3.33;;;1.10;;
84925;SDS011;75187;48.190;16.294;2024-02-26T12:07:49;2.75;;;1.25;;
84925;SDS011;75187;48.190;16.294;2024-02-26T12:15:23;6.30;;;2.30;;
84925;SDS011;75187;48.190;16.294;2024-02-26T12:17:49;2.42;;;1.10;;
84925;SDS011;75187;48.190;16.294;2024-02-26T12:20:15;2.42;;;1.10;;
84925;SDS011;75187;48.190;16.294;2024-02-26T12:22:44;1.73;;;1.10;;
84925;SDS011;75187;48.190;16.294;2024-02-26T12:25:11;1.70;;;1.08;;
84925;SDS011;75187;48.190;16.294;2024-02-26T12:27:38;3.58;;;1.60;;
84925;SDS011;75187;48.190;16.294;2024-02-26T12:30:03;3.63;;;1.60;;
84925;SDS011;75187;48.190;16.294;2024-02-26T12:32:29;2.17;;;1.40;;
84925;SDS011;75187;48.190;16.294;2024-02-26T12:34:56;2.75;;;1.20;;
84925;SDS011;75187;48.190;16.294;2024-02-26T12:37:21;3.55;;;1.60;;
84925;SDS011;75187;48.190;16.294;2024-02-26T12:39:47;2.55;;;1.20;;
84925;SDS011;75187;48.190;16.294;2024-02-26T12:42:12;2.10;;;1.00;;
84925;SDS011;75187;48.190;16.294;2024-02-26T12:44:39;3.30;;;1.33;;
84925;SDS011;75187;48.190;16.294;2024-02-26T12:47:04;2.28;;;1.10;;
84925;SDS011;75187;48.190;16.294;2024-02-26T12:49:30;3.75;;;1.58;;
84925;SDS011;75187;48.190;16.294;2024-02-26T12:51:56;3.08;;;1.52;;
84925;SDS011;75187;48.190;16.294;2024-02-26T12:54:28;4.25;;;1.40;;
84925;SDS011;75187;48.190;16.294;2024-02-26T12:56:58;4.60;;;1.40;;
84925;SDS011;75187;48.190;16.294;2024-02-26T12:59:25;3.65;;;1.60;;
84925;SDS011;75187;48.190;16.294;2024-02-26T13:01:51;4.07;;;1.90;;
84925;SDS011;75187;48.190;16.294;2024-02-26T13:04:16;2.47;;;1.55;;
84925;SDS011;75187;48.190;16.294;2024-02-26T13:06:43;3.78;;;1.40;;
84925;SDS011;75187;48.190;16.294;2024-02-26T13:09:08;5.03;;;1.60;;
84925;SDS011;75187;48.190;16.294;2024-02-26T13:11:39;3.25;;;1.63;;
84925;SDS011;75187;48.190;16.294;2024-02-26T13:14:05;2.78;;;1.85;;
84925;SDS011;75187;48.190;16.294;2024-02-26T13:16:31;5.22;;;2.35;;
84925;SDS011;75187;48.190;16.294;2024-02-26T13:19:07;4.40;;;2.35;;
84925;SDS011;75187;48.190;16.294;2024-02-26T13:21:35;4.55;;;2.05;;
84925;SDS011;75187;48.190;16.294;2024-02-26T13:24:01;3.17;;;1.38;;
84925;SDS011;75187;48.190;16.294;2024-02-26T13:26:26;4.53;;;1.58;;
84925;SDS011;75187;48.190;16.294;2024-02-26T13:29:04;2.05;;;1.20;;
84925;SDS011;75187;48.190;16.294;2024-02-26T13:31:29;2.20;;;1.38;;
84925;SDS011;75187;48.190;16.294;2024-02-26T13:33:54;1.80;;;0.93;;
84925;SDS011;75187;48.190;16.294;2024-02-26T13:36:21;2.08;;;1.40;;
84925;SDS011;75187;48.190;16.294;2024-02-26T13:38:54;2.28;;;1.23;;
84925;SDS011;75187;48.190;16.294;2024-02-26T13:41:20;2.20;;;1.20;;
84925;SDS011;75187;48.190;16.294;2024-02-26T13:43:49;2.30;;;1.10;;
84925;SDS011;75187;48.190;16.294;2024-02-26T13:46:15;2.88;;;1.10;;
84925;SDS011;75187;48.190;16.294;2024-02-26T13:48:43;2.13;;;1.15;;
84925;SDS011;75187;48.190;16.294;2024-02-26T13:51:09;3.20;;;1.30;;
84925;SDS011;75187;48.190;16.294;2024-02-26T13:53:35;2.75;;;1.33;;
84925;SDS011;75187;48.190;16.294;2024-02-26T13:56:00;2.47;;;1.40;;
84925;SDS011;75187;48.190;16.294;2024-02-26T13:58:26;1.85;;;1.20;;
84925;SDS011;75187;48.190;16.294;2024-02-26T14:00:52;4.13;;;1.40;;
84925;SDS011;75187;48.190;16.294;2024-02-26T14:03:18;2.97;;;1.45;;
84925;SDS011;75187;48.190;16.294;2024-02-26T14:05:44;2.25;;;1.27;;
84925;SDS011;75187;48.190;16.294;2024-02-26T14:08:10;3.08;;;1.50;;
84925;SDS011;75187;48.190;16.294;2024-02-26T14:10:35;2.47;;;1.20;;
84925;SDS011;75187;48.190;16.294;2024-02-26T14:13:02;3.92;;;1.38;;
84925;SDS011;75187;48.190;16.294;2024-02-26T14:15:28;2.70;;;1.33;;
84925;SDS011;75187;48.190;16.294;2024-02-26T14:17:54;5.35;;;1.60;;
84925;SDS011;75187;48.190;16.294;2024-02-26T14:20:21;2.70;;;1.17;;
84925;SDS011;75187;48.190;16.294;2024-02-26T14:22:48;2.88;;;1.42;;
84925;SDS011;75187;48.190;16.294;2024-02-26T14:25:14;3.38;;;1.35;;
84925;SDS011;75187;48.190;16.294;2024-02-26T14:27:39;6.20;;;1.38;;
84925;SDS011;75187;48.190;16.294;2024-02-26T14:30:05;2.38;;;1.10;;
84925;SDS011;75187;48.190;16.294;2024-02-26T14:32:31;1.45;;;0.98;;
84925;SDS011;75187;48.190;16.294;2024-02-26T14:35:00;2.92;;;1.20;;
84925;SDS011;75187;48.190;16.294;2024-02-26T14:37:25;3.22;;;1.20;;
84925;SDS011;75187;48.190;16.294;2024-02-26T14:39:50;2.20;;;1.17;;
84925;SDS011;75187;48.190;16.294;2024-02-26T14:42:17;1.20;;;1.00;;